createdAt,value
2023-05-08T00:00:56.664Z,10.31
2023-05-08T00:03:24.031Z,10.16
2023-05-08T00:05:50.584Z,10.03
2023-05-08T00:08:17.023Z,9.99
2023-05-08T00:10:43.425Z,10.13
2023-05-08T00:13:09.915Z,10.18
2023-05-08T00:15:36.517Z,10.06
2023-05-08T00:18:03.032Z,9.96
2023-05-08T00:20:29.616Z,10.08
2023-05-08T00:22:57.820Z,10.16
2023-05-08T00:25:24.315Z,10.06
2023-05-08T00:27:50.800Z,10.00
2023-05-08T00:30:17.566Z,10.03
2023-05-08T00:32:44.139Z,10.11
2023-05-08T00:35:10.786Z,10.05
2023-05-08T00:37:40.672Z,9.94
2023-05-08T00:40:09.123Z,10.03
2023-05-08T00:42:35.655Z,10.02
2023-05-08T00:45:03.201Z,10.02
2023-05-08T00:47:31.653Z,9.89
2023-05-08T00:49:59.255Z,9.88
2023-05-08T00:52:29.660Z,9.85
2023-05-08T00:54:56.557Z,9.89
2023-05-08T00:57:24.392Z,9.87
2023-05-08T00:59:52.663Z,9.88
2023-05-08T01:02:20.945Z,9.87
2023-05-08T01:04:48.384Z,9.87
2023-05-08T01:07:14.844Z,9.86
2023-05-08T01:09:42.377Z,9.75
2023-05-08T01:12:47.538Z,9.64
2023-05-08T01:15:41.225Z,9.73
2023-05-08T01:18:13.323Z,9.73
2023-05-08T01:21:05.534Z,9.70
2023-05-08T01:24:09.628Z,9.67
2023-05-08T01:26:59.302Z,9.62
2023-05-08T01:30:03.465Z,9.61
2023-05-08T01:32:39.086Z,9.59
2023-05-08T01:35:27.276Z,9.64
2023-05-08T01:38:18.611Z,9.53
2023-05-08T01:40:53.626Z,9.43
2023-05-08T01:43:38.715Z,9.31
2023-05-08T01:46:12.496Z,9.34
2023-05-08T01:48:56.338Z,9.22
2023-05-08T01:51:25.464Z,9.21
2023-05-08T01:53:57.943Z,9.50
2023-05-08T01:56:27.128Z,9.42
2023-05-08T01:58:55.800Z,9.47
2023-05-08T02:01:25.780Z,9.52
2023-05-08T02:03:54.500Z,9.43
2023-05-08T02:06:22.701Z,9.29
2023-05-08T02:08:51.485Z,9.30
2023-05-08T02:11:18.725Z,9.34
2023-05-08T02:13:48.083Z,9.36
2023-05-08T02:16:15.698Z,9.42
2023-05-08T02:18:51.165Z,9.51
2023-05-08T02:21:18.773Z,9.54
2023-05-08T02:23:47.014Z,9.51
2023-05-08T02:26:15.920Z,9.35
2023-05-08T02:28:42.925Z,9.50
2023-05-08T02:31:12.113Z,9.57
2023-05-08T02:33:41.627Z,9.50
2023-05-08T02:36:08.997Z,9.45
2023-05-08T02:38:38.091Z,9.57
2023-05-08T02:41:06.590Z,9.51
2023-05-08T02:43:33.257Z,9.59
2023-05-08T02:46:20.036Z,9.51
2023-05-08T02:48:59.616Z,9.43
2023-05-08T02:51:48.267Z,9.24
2023-05-08T02:54:21.825Z,9.44
2023-05-08T02:56:58.181Z,9.48
2023-05-08T02:59:30.071Z,9.53
2023-05-08T03:02:09.400Z,9.47
2023-05-08T03:04:40.329Z,9.57
2023-05-08T03:07:07.046Z,9.63
2023-05-08T03:09:47.295Z,9.66
2023-05-08T03:12:17.048Z,9.61
2023-05-08T03:14:52.904Z,9.65
2023-05-08T03:17:22.840Z,9.71
2023-05-08T03:19:55.100Z,9.73
2023-05-08T03:22:22.810Z,9.75
2023-05-08T03:24:51.300Z,9.75
2023-05-08T03:27:18.194Z,9.78
2023-05-08T03:29:46.015Z,9.65
2023-05-08T03:32:14.077Z,9.70
2023-05-08T03:34:41.051Z,9.73
2023-05-08T03:37:07.686Z,9.73
2023-05-08T03:39:34.185Z,9.69
2023-05-08T03:42:00.827Z,9.67
2023-05-08T03:44:28.573Z,9.68
2023-05-08T03:46:58.538Z,9.69
2023-05-08T03:49:26.496Z,9.78
2023-05-08T03:51:56.828Z,9.78
2023-05-08T03:54:25.569Z,9.76
2023-05-08T03:56:53.820Z,9.74
2023-05-08T03:59:28.895Z,9.76
2023-05-08T04:02:01.520Z,9.82
2023-05-08T04:04:33.677Z,9.84
2023-05-08T04:07:10.494Z,9.85
2023-05-08T04:09:51.614Z,9.88
2023-05-08T04:12:21.931Z,9.90
2023-05-08T04:14:56.714Z,9.95
2023-05-08T04:17:34.854Z,10.01
2023-05-08T04:20:04.679Z,10.04
2023-05-08T04:22:33.674Z,10.04
2023-05-08T04:25:03.932Z,9.99
2023-05-08T04:27:31.299Z,9.91
2023-05-08T04:29:58.366Z,9.90
2023-05-08T04:32:26.154Z,9.84
2023-05-08T04:34:53.107Z,9.87
2023-05-08T04:37:26.866Z,9.83
2023-05-08T04:39:53.662Z,9.82
2023-05-08T04:42:20.854Z,9.83
2023-05-08T04:44:47.730Z,9.82
2023-05-08T04:47:14.677Z,9.77
2023-05-08T04:49:41.177Z,9.84
2023-05-08T04:52:07.890Z,9.86
2023-05-08T04:54:34.656Z,9.86
2023-05-08T04:57:01.333Z,9.85
2023-05-08T04:59:29.416Z,9.85
2023-05-08T05:01:56.864Z,9.85
2023-05-08T05:04:23.391Z,9.84
2023-05-08T05:06:49.933Z,9.87
2023-05-08T05:09:16.384Z,9.88
2023-05-08T05:11:42.913Z,9.88
2023-05-08T05:14:09.416Z,9.91
2023-05-08T05:16:36.039Z,9.96
2023-05-08T05:19:02.565Z,9.97
2023-05-08T05:21:28.969Z,9.97
2023-05-08T05:23:55.370Z,9.90
2023-05-08T05:26:22.095Z,9.88
2023-05-08T05:28:48.910Z,9.90
2023-05-08T05:31:15.451Z,9.88
2023-05-08T05:33:42.493Z,9.84
2023-05-08T05:36:10.006Z,9.83
2023-05-08T05:38:36.672Z,9.76
2023-05-08T05:41:03.441Z,9.77
2023-05-08T05:43:30.048Z,9.77
2023-05-08T05:45:56.492Z,9.76
2023-05-08T05:48:23.048Z,9.68
2023-05-08T05:50:49.443Z,9.70
2023-05-08T05:53:15.965Z,9.72
2023-05-08T05:55:42.410Z,9.78
2023-05-08T05:58:09.019Z,9.82
2023-05-08T06:00:35.552Z,9.88
2023-05-08T06:03:02.863Z,9.94
2023-05-08T06:05:29.911Z,9.96
2023-05-08T06:07:57.216Z,10.00
2023-05-08T06:10:24.141Z,9.95
2023-05-08T06:12:50.652Z,10.15
2023-05-08T06:15:17.386Z,10.18
2023-05-08T06:17:43.912Z,10.23
2023-05-08T06:20:10.600Z,10.25
2023-05-08T06:22:40.275Z,10.28
2023-05-08T06:25:07.390Z,10.28
2023-05-08T06:27:37.006Z,10.31
2023-05-08T06:30:04.730Z,10.35
2023-05-08T06:32:31.343Z,10.45
2023-05-08T06:34:57.834Z,10.49
2023-05-08T06:37:24.361Z,10.54
2023-05-08T06:40:00.270Z,10.58
2023-05-08T06:42:37.006Z,10.64
2023-05-08T06:45:04.362Z,10.69
2023-05-08T06:47:30.876Z,10.58
2023-05-08T06:49:57.342Z,10.69
2023-05-08T06:52:25.787Z,10.65
2023-05-08T06:54:52.419Z,10.66
2023-05-08T06:57:18.954Z,10.65
2023-05-08T06:59:45.387Z,10.66
2023-05-08T07:02:12.453Z,10.69
2023-05-08T07:04:39.162Z,10.79
2023-05-08T07:07:06.855Z,10.84
2023-05-08T07:09:33.468Z,10.74
2023-05-08T07:11:59.883Z,10.75
2023-05-08T07:14:27.553Z,10.72
2023-05-08T07:16:54.421Z,10.80
2023-05-08T07:19:22.556Z,10.78
2023-05-08T07:21:49.329Z,10.79
2023-05-08T07:24:15.852Z,10.54
2023-05-08T07:26:42.582Z,10.85
2023-05-08T07:29:09.029Z,10.97
2023-05-08T07:31:36.460Z,11.02
2023-05-08T07:34:03.120Z,11.03
2023-05-08T07:36:30.690Z,10.99
2023-05-08T07:38:57.292Z,11.06
2023-05-08T07:41:23.921Z,11.16
2023-05-08T07:43:50.455Z,11.16
2023-05-08T07:46:18.301Z,11.14
2023-05-08T07:48:44.873Z,11.10
2023-05-08T07:51:11.396Z,11.13
2023-05-08T07:53:37.800Z,11.10
2023-05-08T07:56:05.217Z,11.12
2023-05-08T07:58:31.748Z,11.22
2023-05-08T08:00:58.215Z,11.33
2023-05-08T08:03:24.757Z,11.43
2023-05-08T08:05:51.443Z,11.39
2023-05-08T08:08:17.985Z,11.31
2023-05-08T08:10:44.408Z,11.37
2023-05-08T08:13:10.826Z,11.41
2023-05-08T08:15:37.322Z,11.52
2023-05-08T08:18:03.900Z,11.53
2023-05-08T08:20:30.399Z,11.63
2023-05-08T08:22:56.795Z,11.61
2023-05-08T08:25:24.624Z,11.75
2023-05-08T08:27:51.428Z,12.09
2023-05-08T08:30:18.775Z,12.12
2023-05-08T08:32:46.192Z,11.94
2023-05-08T08:35:13.644Z,11.99
2023-05-08T08:37:40.374Z,12.04
2023-05-08T08:40:07.673Z,12.24
2023-05-08T08:42:34.203Z,12.16
2023-05-08T08:45:01.204Z,12.36
2023-05-08T08:47:29.750Z,12.34
2023-05-08T08:49:58.919Z,12.32
2023-05-08T08:52:47.288Z,12.45
2023-05-08T08:55:17.084Z,12.39
2023-05-08T08:57:52.890Z,12.44
2023-05-08T09:00:21.116Z,12.67
2023-05-08T09:02:47.791Z,12.72
2023-05-08T09:05:15.893Z,12.76
2023-05-08T09:07:43.847Z,12.89
2023-05-08T09:10:15.835Z,12.99
2023-05-08T09:12:42.609Z,13.35
2023-05-08T09:15:09.291Z,13.47
2023-05-08T09:17:35.832Z,13.51
2023-05-08T09:20:02.740Z,13.53
2023-05-08T09:22:30.351Z,13.52
2023-05-08T09:25:01.004Z,13.59
2023-05-08T09:27:28.807Z,13.66
2023-05-08T09:30:04.550Z,13.80
2023-05-08T09:32:32.367Z,13.72
2023-05-08T09:34:59.591Z,13.62
2023-05-08T09:37:26.919Z,13.49
2023-05-08T09:39:54.478Z,13.47
2023-05-08T09:42:21.359Z,13.47
2023-05-08T09:44:53.205Z,13.47
2023-05-08T09:47:22.225Z,13.47
2023-05-08T09:50:08.820Z,13.56
2023-05-08T09:52:37.317Z,13.62
2023-05-08T09:55:09.370Z,13.72
2023-05-08T09:57:39.211Z,13.81
2023-05-08T10:00:11.391Z,13.98
2023-05-08T10:02:53.654Z,14.03
2023-05-08T10:05:26.367Z,14.14
2023-05-08T10:07:53.521Z,14.13
2023-05-08T10:10:27.099Z,14.11
2023-05-08T10:12:55.662Z,14.08
2023-05-08T10:15:24.463Z,14.30
2023-05-08T10:17:58.780Z,14.43
2023-05-08T10:20:29.460Z,14.45
2023-05-08T10:22:57.222Z,14.52
2023-05-08T10:25:25.707Z,14.55
2023-05-08T10:28:16.306Z,14.51
2023-05-08T10:30:47.435Z,14.55
2023-05-08T10:33:25.732Z,14.50
2023-05-08T10:35:52.701Z,14.51
2023-05-08T10:38:19.647Z,14.50
2023-05-08T10:40:48.044Z,14.50
2023-05-08T10:43:14.721Z,14.51
2023-05-08T10:45:41.567Z,14.56
2023-05-08T10:48:27.282Z,14.61
2023-05-08T10:51:14.576Z,14.55
2023-05-08T10:53:55.327Z,14.55
2023-05-08T10:56:29.104Z,14.59
2023-05-08T10:58:57.568Z,14.58
2023-05-08T11:01:24.994Z,14.62
2023-05-08T11:03:52.556Z,14.65
2023-05-08T11:06:43.600Z,14.82
2023-05-08T11:09:15.094Z,14.95
2023-05-08T11:11:49.003Z,14.97
2023-05-08T11:14:17.063Z,15.11
2023-05-08T11:17:04.110Z,15.07
2023-05-08T11:19:30.741Z,15.18
2023-05-08T11:22:21.802Z,15.30
2023-05-08T11:24:57.100Z,15.32
2023-05-08T11:27:53.740Z,15.35
2023-05-08T11:30:36.823Z,15.45
2023-05-08T11:33:04.667Z,15.50
2023-05-08T11:35:42.655Z,15.49
2023-05-08T11:38:17.180Z,15.51
2023-05-08T11:40:54.240Z,15.54
2023-05-08T11:43:31.394Z,15.62
2023-05-08T11:46:01.457Z,15.67
2023-05-08T11:48:27.895Z,15.81
2023-05-08T11:50:54.421Z,15.75
2023-05-08T11:53:22.651Z,15.70
2023-05-08T11:55:52.766Z,15.63
2023-05-08T11:58:19.334Z,15.52
2023-05-08T12:00:47.106Z,15.49
2023-05-08T12:03:17.472Z,15.53
2023-05-08T12:05:44.771Z,15.48
2023-05-08T12:08:13.408Z,15.42
2023-05-08T12:11:00.174Z,15.45
2023-05-08T12:13:28.816Z,15.34
2023-05-08T12:15:58.473Z,15.54
2023-05-08T12:18:26.857Z,15.67
2023-05-08T12:20:54.197Z,15.80
2023-05-08T12:23:20.959Z,15.77
2023-05-08T12:25:47.600Z,15.77
2023-05-08T12:28:14.115Z,15.85
2023-05-08T12:30:41.245Z,15.98
2023-05-08T12:33:08.864Z,16.18
2023-05-08T12:35:37.343Z,16.23
2023-05-08T12:38:05.746Z,16.24
2023-05-08T12:40:42.708Z,16.25
2023-05-08T12:43:10.511Z,16.24
2023-05-08T12:45:39.516Z,16.28
2023-05-08T12:48:11.423Z,16.26
2023-05-08T12:50:40.534Z,16.37
2023-05-08T12:53:09.335Z,16.09
2023-05-08T12:55:37.468Z,16.07
2023-05-08T12:58:06.928Z,15.99
2023-05-08T13:00:42.672Z,16.02
2023-05-08T13:03:11.284Z,16.04
2023-05-08T13:05:42.202Z,15.95
2023-05-08T13:08:10.946Z,16.02
2023-05-08T13:10:54.480Z,15.93
2023-05-08T13:13:23.278Z,15.93
2023-05-08T13:15:51.155Z,15.88
2023-05-08T13:18:18.378Z,15.85
2023-05-08T13:20:45.007Z,15.74
2023-05-08T13:23:12.355Z,15.64
2023-05-08T13:25:40.458Z,15.66
2023-05-08T13:28:08.725Z,15.65
2023-05-08T13:30:37.112Z,15.66
2023-05-08T13:33:04.285Z,15.63
2023-05-08T13:35:31.054Z,15.66
2023-05-08T13:37:58.506Z,15.67
2023-05-08T13:40:25.540Z,15.66
2023-05-08T13:42:52.321Z,15.64
2023-05-08T13:45:18.914Z,15.61
2023-05-08T13:47:46.575Z,15.64
2023-05-08T13:50:14.793Z,15.67
2023-05-08T13:52:41.897Z,15.62
2023-05-08T13:55:10.351Z,15.63
2023-05-08T13:57:36.949Z,15.59
2023-05-08T14:00:04.920Z,15.62
2023-05-08T14:02:32.589Z,15.64
2023-05-08T14:04:59.052Z,15.61
2023-05-08T14:07:26.240Z,15.57
2023-05-08T14:09:53.325Z,15.54
2023-05-08T14:12:20.131Z,15.44
2023-05-08T14:14:46.643Z,15.42
2023-05-08T14:17:13.088Z,15.43
2023-05-08T14:19:39.533Z,15.43
2023-05-08T14:22:06.998Z,15.40
2023-05-08T14:24:33.424Z,15.46
2023-05-08T14:27:00.436Z,15.51
2023-05-08T14:29:26.910Z,15.55
2023-05-08T14:31:53.490Z,15.63
2023-05-08T14:34:20.004Z,15.64
2023-05-08T14:36:46.405Z,15.58
2023-05-08T14:39:12.942Z,15.62
2023-05-08T14:41:39.671Z,15.60
2023-05-08T14:44:07.369Z,15.62
2023-05-08T14:46:33.980Z,15.66
2023-05-08T14:49:00.464Z,15.68
2023-05-08T14:51:27.078Z,15.73
2023-05-08T14:53:53.723Z,15.70
2023-05-08T14:56:24.404Z,15.68
2023-05-08T14:58:51.335Z,15.70
2023-05-08T15:01:18.453Z,15.63
2023-05-08T15:03:47.358Z,15.62
2023-05-08T15:06:14.031Z,15.62
2023-05-08T15:08:40.509Z,15.58
2023-05-08T15:11:06.918Z,15.61
2023-05-08T15:13:33.589Z,15.59
2023-05-08T15:16:00.091Z,15.46
2023-05-08T15:18:28.505Z,15.39
2023-05-08T15:20:54.960Z,15.56
2023-05-08T15:23:21.427Z,15.63
2023-05-08T15:25:49.608Z,15.68
2023-05-08T15:28:16.030Z,15.75
2023-05-08T15:30:45.850Z,15.78
2023-05-08T15:33:12.720Z,15.86
2023-05-08T15:35:39.243Z,15.82
2023-05-08T15:38:07.229Z,15.85
2023-05-08T15:40:34.813Z,15.78
2023-05-08T15:43:01.411Z,15.73
2023-05-08T15:45:28.045Z,15.62
2023-05-08T15:47:54.497Z,15.55
2023-05-08T15:50:23.559Z,15.46
2023-05-08T15:52:50.047Z,15.40
2023-05-08T15:55:17.648Z,15.30
2023-05-08T15:57:44.092Z,15.25
2023-05-08T16:00:11.164Z,15.26
2023-05-08T16:02:37.665Z,15.25
2023-05-08T16:05:12.856Z,15.15
2023-05-08T16:07:39.700Z,15.13
2023-05-08T16:10:07.397Z,15.15
2023-05-08T16:12:34.057Z,15.07
2023-05-08T16:15:00.515Z,15.10
2023-05-08T16:17:27.119Z,15.02
2023-05-08T16:19:53.652Z,15.04
2023-05-08T16:22:20.196Z,15.11
2023-05-08T16:24:46.872Z,15.03
2023-05-08T16:27:13.363Z,15.16
2023-05-08T16:29:39.797Z,15.16
2023-05-08T16:32:06.446Z,15.20
2023-05-08T16:34:35.266Z,15.22
2023-05-08T16:37:01.699Z,15.28
2023-05-08T16:39:28.235Z,15.12
2023-05-08T16:41:54.687Z,15.05
2023-05-08T16:44:21.180Z,15.12
2023-05-08T16:46:48.308Z,15.17
2023-05-08T16:49:14.745Z,15.21
2023-05-08T16:51:41.150Z,15.15
2023-05-08T16:54:07.566Z,15.16
2023-05-08T16:56:34.012Z,15.16
2023-05-08T16:59:05.946Z,15.14
2023-05-08T17:01:35.295Z,15.17
2023-05-08T17:04:01.885Z,15.24
2023-05-08T17:06:28.510Z,15.17
2023-05-08T17:08:55.045Z,15.05
2023-05-08T17:11:21.889Z,15.25
2023-05-08T17:13:48.385Z,15.20
2023-05-08T17:16:15.034Z,15.08
2023-05-08T17:18:41.471Z,15.01
2023-05-08T17:21:07.902Z,15.07
2023-05-08T17:23:34.394Z,14.89
2023-05-08T17:26:02.208Z,15.04
2023-05-08T17:28:29.028Z,14.96
2023-05-08T17:30:55.921Z,14.92
2023-05-08T17:33:22.673Z,14.83
2023-05-08T17:35:49.151Z,14.55
2023-05-08T17:38:15.689Z,14.52
2023-05-08T17:40:42.433Z,14.51
2023-05-08T17:43:08.925Z,14.46
2023-05-08T17:45:35.513Z,14.36
2023-05-08T17:48:02.200Z,14.18
2023-05-08T17:50:28.779Z,14.08
2023-05-08T17:52:55.322Z,14.04
2023-05-08T17:55:22.015Z,14.02
2023-05-08T17:57:48.461Z,14.12
2023-05-08T18:00:15.491Z,14.08
2023-05-08T18:02:42.140Z,13.94
2023-05-08T18:05:09.024Z,13.91
2023-05-08T18:07:35.470Z,13.83
2023-05-08T18:10:02.141Z,13.77
2023-05-08T18:12:28.787Z,13.90
2023-05-08T18:14:55.238Z,13.88
2023-05-08T18:17:22.712Z,13.89
2023-05-08T18:19:49.284Z,13.79
2023-05-08T18:22:15.853Z,13.71
2023-05-08T18:24:42.468Z,13.66
2023-05-08T18:27:09.148Z,13.74
2023-05-08T18:29:35.674Z,13.69
2023-05-08T18:32:02.134Z,13.65
2023-05-08T18:34:28.531Z,13.65
2023-05-08T18:36:56.145Z,13.56
2023-05-08T18:39:24.535Z,13.48
2023-05-08T18:41:50.951Z,13.39
2023-05-08T18:44:17.794Z,13.41
2023-05-08T18:46:44.293Z,13.60
2023-05-08T18:49:10.991Z,13.46
2023-05-08T18:51:37.464Z,13.29
2023-05-08T18:54:04.116Z,13.07
2023-05-08T18:56:30.766Z,13.06
2023-05-08T18:58:57.237Z,12.96
2023-05-08T19:01:23.928Z,13.03
2023-05-08T19:03:50.660Z,12.98
2023-05-08T19:06:17.204Z,12.88
2023-05-08T19:08:44.533Z,12.84
2023-05-08T19:11:11.009Z,12.82
2023-05-08T19:13:37.878Z,12.78
2023-05-08T19:16:04.605Z,12.77
2023-05-08T19:18:31.146Z,12.81
2023-05-08T19:20:57.895Z,12.81
2023-05-08T19:23:28.188Z,12.90
2023-05-08T19:25:54.782Z,12.89
2023-05-08T19:28:21.244Z,12.90
2023-05-08T19:30:47.678Z,12.86
2023-05-08T19:33:14.236Z,12.94
2023-05-08T19:35:40.661Z,12.96
2023-05-08T19:38:07.278Z,12.99
2023-05-08T19:40:41.321Z,13.01
2023-05-08T19:43:18.738Z,13.15
2023-05-08T19:45:45.294Z,13.13
2023-05-08T19:48:17.951Z,13.11
2023-05-08T19:50:44.971Z,13.07
2023-05-08T19:53:11.466Z,13.00
2023-05-08T19:55:38.016Z,13.01
2023-05-08T19:58:04.423Z,12.98
2023-05-08T20:00:30.841Z,13.12
2023-05-08T20:02:57.403Z,13.22
2023-05-08T20:05:23.971Z,13.16
2023-05-08T20:07:50.385Z,12.98
2023-05-08T20:10:16.944Z,12.97
2023-05-08T20:12:43.497Z,12.93
2023-05-08T20:15:10.500Z,12.79
2023-05-08T20:17:36.935Z,12.69
2023-05-08T20:20:03.693Z,12.60
2023-05-08T20:22:30.218Z,12.55
2023-05-08T20:24:56.850Z,12.42
2023-05-08T20:27:23.311Z,12.53
2023-05-08T20:29:49.905Z,12.57
2023-05-08T20:32:19.019Z,12.58
2023-05-08T20:34:45.514Z,12.52
2023-05-08T20:37:12.128Z,12.59
2023-05-08T20:39:38.715Z,12.47
2023-05-08T20:42:05.150Z,12.41
2023-05-08T20:44:32.652Z,12.37
2023-05-08T20:46:59.323Z,12.37
2023-05-08T20:49:26.074Z,12.39
2023-05-08T20:51:52.573Z,12.34
2023-05-08T20:54:19.125Z,12.31
2023-05-08T20:56:45.657Z,12.34
2023-05-08T20:59:12.118Z,12.35
2023-05-08T21:01:38.684Z,12.33
2023-05-08T21:04:05.262Z,12.26
2023-05-08T21:06:32.197Z,12.19
2023-05-08T21:08:58.630Z,12.13
2023-05-08T21:11:25.095Z,12.15
2023-05-08T21:13:51.624Z,12.14
2023-05-08T21:16:18.093Z,12.10
2023-05-08T21:18:44.558Z,12.11
2023-05-08T21:21:15.751Z,12.08
2023-05-08T21:23:42.169Z,12.06
2023-05-08T21:26:08.785Z,12.12
2023-05-08T21:28:35.270Z,12.07
2023-05-08T21:31:01.821Z,12.03
2023-05-08T21:33:28.342Z,12.02
2023-05-08T21:35:54.856Z,11.97
2023-05-08T21:38:21.294Z,12.02
2023-05-08T21:40:47.718Z,11.99
2023-05-08T21:43:14.165Z,11.94
2023-05-08T21:45:40.578Z,11.92
2023-05-08T21:48:07.026Z,11.90
2023-05-08T21:50:33.572Z,11.94
2023-05-08T21:53:00.165Z,11.95
2023-05-08T21:55:26.745Z,11.94
2023-05-08T21:57:53.883Z,11.93
2023-05-08T22:00:20.960Z,11.91
2023-05-08T22:02:47.944Z,11.91
2023-05-08T22:05:14.787Z,11.94
2023-05-08T22:07:41.590Z,11.84
2023-05-08T22:10:09.420Z,11.89
2023-05-08T22:12:36.098Z,11.86
2023-05-08T22:15:02.703Z,11.89
2023-05-08T22:17:29.196Z,11.84
2023-05-08T22:19:55.601Z,11.83
2023-05-08T22:22:22.130Z,11.81
2023-05-08T22:24:48.563Z,11.82
2023-05-08T22:27:15.014Z,11.75
2023-05-08T22:29:41.440Z,11.80
2023-05-08T22:32:08.494Z,11.89
2023-05-08T22:34:35.180Z,11.90
2023-05-08T22:37:02.179Z,11.89
2023-05-08T22:39:28.698Z,11.85
2023-05-08T22:41:55.368Z,11.82
2023-05-08T22:44:22.202Z,11.85
2023-05-08T22:46:48.886Z,11.75
2023-05-08T22:49:15.521Z,11.82
2023-05-08T22:51:42.028Z,11.88
2023-05-08T22:54:08.500Z,11.80
2023-05-08T22:56:36.058Z,11.77
2023-05-08T22:59:02.539Z,11.81
2023-05-08T23:01:28.970Z,11.81
2023-05-08T23:03:56.582Z,11.76
2023-05-08T23:06:23.331Z,11.77
2023-05-08T23:08:49.790Z,11.69
2023-05-08T23:11:16.505Z,11.76
2023-05-08T23:13:42.952Z,11.71
2023-05-08T23:16:09.553Z,11.74
2023-05-08T23:18:36.019Z,11.75
2023-05-08T23:21:06.635Z,11.70
2023-05-08T23:23:33.373Z,11.72
2023-05-08T23:26:01.096Z,11.76
2023-05-08T23:28:27.646Z,11.71
2023-05-08T23:30:54.137Z,11.73
2023-05-08T23:33:20.840Z,11.73
2023-05-08T23:35:47.264Z,11.70
2023-05-08T23:38:13.762Z,11.75
2023-05-08T23:40:40.332Z,11.75
2023-05-08T23:43:06.964Z,11.73
2023-05-08T23:45:33.434Z,11.71
2023-05-08T23:47:59.953Z,11.73
2023-05-08T23:50:26.589Z,11.74
2023-05-08T23:52:53.098Z,11.72
2023-05-08T23:55:20.255Z,11.73
2023-05-08T23:57:46.904Z,11.75
